createdAt,value
2023-03-17T00:01:54.295Z,1.30
2023-03-17T00:04:22.698Z,1.50
2023-03-17T00:06:50.647Z,1.00
2023-03-17T00:09:20.109Z,1.45
2023-03-17T00:11:48.503Z,1.17
2023-03-17T00:14:16.882Z,1.48
2023-03-17T00:16:45.773Z,1.30
2023-03-17T00:19:16.605Z,1.20
2023-03-17T00:21:45.429Z,1.13
2023-03-17T00:24:15.251Z,1.30
2023-03-17T00:26:44.283Z,1.40
2023-03-17T00:29:12.277Z,1.35
2023-03-17T00:31:40.333Z,1.38
2023-03-17T00:34:08.794Z,1.00
2023-03-17T00:36:37.856Z,1.60
2023-03-17T00:39:07.828Z,1.45
2023-03-17T00:41:35.314Z,1.40
2023-03-17T00:44:04.915Z,1.30
2023-03-17T00:46:37.934Z,1.20
2023-03-17T00:49:11.991Z,1.45
2023-03-17T00:51:39.551Z,1.52
2023-03-17T00:54:07.131Z,1.10
2023-03-17T00:56:34.761Z,1.02
2023-03-17T00:59:02.691Z,1.08
2023-03-17T01:01:31.546Z,1.42
2023-03-17T01:04:02.832Z,1.40
2023-03-17T01:06:30.367Z,1.38
2023-03-17T01:08:58.222Z,1.00
2023-03-17T01:11:26.247Z,1.08
2023-03-17T01:13:53.797Z,1.38
2023-03-17T01:16:21.553Z,1.02
2023-03-17T01:18:50.639Z,1.05
2023-03-17T01:21:18.212Z,1.10
2023-03-17T01:23:45.711Z,1.10
2023-03-17T01:26:16.284Z,1.70
2023-03-17T01:28:43.763Z,1.13
2023-03-17T01:31:12.614Z,1.08
2023-03-17T01:33:40.665Z,1.40
2023-03-17T01:36:10.548Z,1.30
2023-03-17T01:38:38.134Z,1.17
2023-03-17T01:41:05.819Z,0.98
2023-03-17T01:43:33.544Z,1.10
2023-03-17T01:46:27.689Z,1.30
2023-03-17T01:48:58.780Z,1.50
2023-03-17T01:51:32.255Z,0.90
2023-03-17T01:54:01.019Z,1.42
2023-03-17T01:56:30.312Z,1.20
2023-03-17T01:58:58.836Z,0.95
2023-03-17T02:01:29.125Z,1.05
2023-03-17T02:03:57.127Z,1.42
2023-03-17T02:06:24.819Z,1.30
2023-03-17T02:08:53.755Z,1.63
2023-03-17T02:11:22.499Z,0.90
2023-03-17T02:13:50.535Z,1.08
2023-03-17T02:16:18.189Z,1.25
2023-03-17T02:18:45.949Z,1.33
2023-03-17T02:21:45.588Z,1.23
2023-03-17T02:24:18.457Z,1.30
2023-03-17T02:26:48.464Z,1.15
2023-03-17T02:29:17.025Z,1.20
2023-03-17T02:31:44.840Z,1.10
2023-03-17T02:34:12.670Z,1.20
2023-03-17T02:36:40.285Z,1.63
2023-03-17T02:39:08.068Z,1.17
2023-03-17T02:41:37.329Z,1.95
2023-03-17T02:44:05.178Z,1.40
2023-03-17T02:46:32.814Z,0.93
2023-03-17T02:49:01.215Z,1.35
2023-03-17T02:51:28.739Z,1.13
2023-03-17T02:53:56.229Z,1.35
2023-03-17T02:56:23.776Z,1.02
2023-03-17T02:58:53.069Z,1.52
2023-03-17T03:01:21.219Z,1.00
2023-03-17T03:03:48.989Z,0.93
2023-03-17T03:06:16.819Z,1.75
2023-03-17T03:08:44.339Z,1.10
2023-03-17T03:11:12.269Z,1.08
2023-03-17T03:13:40.678Z,1.08
2023-03-17T03:16:10.094Z,1.40
2023-03-17T03:18:38.486Z,1.08
2023-03-17T03:21:06.675Z,1.05
2023-03-17T03:23:34.266Z,1.08
2023-03-17T03:26:02.306Z,1.10
2023-03-17T03:28:29.858Z,1.15
2023-03-17T03:30:57.402Z,1.20
2023-03-17T03:33:26.340Z,1.10
2023-03-17T03:35:54.190Z,1.30
2023-03-17T03:38:21.737Z,1.33
2023-03-17T03:40:49.282Z,1.10
2023-03-17T03:43:23.345Z,1.42
2023-03-17T03:45:51.812Z,1.40
2023-03-17T03:48:19.522Z,1.05
2023-03-17T03:50:48.383Z,1.33
2023-03-17T03:53:16.326Z,1.20
2023-03-17T03:55:43.814Z,1.60
2023-03-17T03:58:11.381Z,1.08
2023-03-17T04:00:38.950Z,1.50
2023-03-17T04:03:06.549Z,1.17
2023-03-17T04:05:35.401Z,1.30
2023-03-17T04:08:04.471Z,1.42
2023-03-17T04:10:32.716Z,1.20
2023-03-17T04:13:00.385Z,1.30
2023-03-17T04:15:27.959Z,1.15
2023-03-17T04:17:56.040Z,1.10
2023-03-17T04:20:23.582Z,1.23
2023-03-17T04:22:51.396Z,1.33
2023-03-17T04:25:20.485Z,1.30
2023-03-17T04:27:47.991Z,1.30
2023-03-17T04:30:17.091Z,1.52
2023-03-17T04:32:45.147Z,1.55
2023-03-17T04:35:14.014Z,1.35
2023-03-17T04:37:41.642Z,1.77
2023-03-17T04:40:10.537Z,1.38
2023-03-17T04:42:39.722Z,1.70
2023-03-17T04:45:09.478Z,1.77
2023-03-17T04:47:37.321Z,1.88
2023-03-17T04:50:05.380Z,1.58
2023-03-17T04:52:32.960Z,1.42
2023-03-17T04:55:00.446Z,1.73
2023-03-17T04:57:28.820Z,2.00
2023-03-17T04:59:58.364Z,1.80
2023-03-17T05:02:26.288Z,1.67
2023-03-17T05:04:53.857Z,1.75
2023-03-17T05:07:21.416Z,2.13
2023-03-17T05:09:48.948Z,1.80
2023-03-17T05:12:16.565Z,1.95
2023-03-17T05:14:44.049Z,1.90
2023-03-17T05:17:13.030Z,2.20
2023-03-17T05:19:40.791Z,1.98
2023-03-17T05:22:08.430Z,2.08
2023-03-17T05:24:35.922Z,1.95
2023-03-17T05:27:03.446Z,1.70
2023-03-17T05:29:31.128Z,1.70
2023-03-17T05:31:58.600Z,1.80
2023-03-17T05:34:27.595Z,2.08
2023-03-17T05:36:55.517Z,1.75
2023-03-17T05:39:22.994Z,2.83
2023-03-17T05:41:51.234Z,1.95
2023-03-17T05:44:18.800Z,1.90
2023-03-17T05:46:46.698Z,2.10
2023-03-17T05:49:14.442Z,1.80
2023-03-17T05:51:43.331Z,2.20
2023-03-17T05:54:11.136Z,2.88
2023-03-17T05:56:39.242Z,2.17
2023-03-17T05:59:06.802Z,2.15
2023-03-17T06:01:34.478Z,2.13
2023-03-17T06:04:03.373Z,3.17
2023-03-17T06:06:31.068Z,2.25
2023-03-17T06:09:00.638Z,2.28
2023-03-17T06:11:28.297Z,2.00
2023-03-17T06:13:56.280Z,2.05
2023-03-17T06:16:24.184Z,2.15
2023-03-17T06:18:51.807Z,1.98
2023-03-17T06:21:19.383Z,2.08
2023-03-17T06:23:46.940Z,2.55
2023-03-17T06:26:15.956Z,1.65
2023-03-17T06:28:43.472Z,2.17
2023-03-17T06:31:11.214Z,2.10
2023-03-17T06:33:38.882Z,2.30
2023-03-17T06:36:08.542Z,2.25
2023-03-17T06:38:36.158Z,2.60
2023-03-17T06:41:04.481Z,1.98
2023-03-17T06:43:33.487Z,2.00
2023-03-17T06:46:01.471Z,2.40
2023-03-17T06:48:29.322Z,2.40
2023-03-17T06:50:57.409Z,2.55
2023-03-17T06:53:24.898Z,2.17
2023-03-17T06:55:52.406Z,2.53
2023-03-17T06:58:20.749Z,2.38
2023-03-17T07:00:53.504Z,2.38
2023-03-17T07:03:21.840Z,2.67
2023-03-17T07:05:49.587Z,3.03
2023-03-17T07:08:17.997Z,2.90
2023-03-17T07:10:47.250Z,2.72
2023-03-17T07:13:18.850Z,2.58
2023-03-17T07:15:50.054Z,1.83
2023-03-17T07:18:19.798Z,2.47
2023-03-17T07:20:54.142Z,2.40
2023-03-17T07:23:22.903Z,2.50
2023-03-17T07:25:50.754Z,2.22
2023-03-17T07:28:21.796Z,2.85
2023-03-17T07:30:49.862Z,2.42
2023-03-17T07:33:22.141Z,2.28
2023-03-17T07:35:51.414Z,2.33
2023-03-17T07:38:24.866Z,2.10
2023-03-17T07:40:53.113Z,2.40
2023-03-17T07:43:21.880Z,2.30
2023-03-17T07:45:50.197Z,2.47
2023-03-17T07:48:33.015Z,2.70
2023-03-17T07:51:03.810Z,2.58
2023-03-17T07:53:31.637Z,2.47
2023-03-17T07:56:00.106Z,2.63
2023-03-17T07:58:27.830Z,2.47
2023-03-17T08:00:57.012Z,2.78
2023-03-17T08:03:25.966Z,2.38
2023-03-17T08:05:55.311Z,2.80
2023-03-17T08:08:22.984Z,2.70
2023-03-17T08:10:50.885Z,2.95
2023-03-17T08:13:19.077Z,2.13
2023-03-17T08:15:47.255Z,2.63
2023-03-17T08:18:14.745Z,2.40
2023-03-17T08:20:44.330Z,2.30
2023-03-17T08:23:12.375Z,1.95
2023-03-17T08:25:43.180Z,2.10
2023-03-17T08:28:11.396Z,2.45
2023-03-17T08:30:39.813Z,2.45
2023-03-17T08:33:10.040Z,2.40
2023-03-17T08:35:37.958Z,2.33
2023-03-17T08:38:07.936Z,2.25
2023-03-17T08:40:36.575Z,2.45
2023-03-17T08:43:04.184Z,2.45
2023-03-17T08:45:32.403Z,2.15
2023-03-17T08:48:00.184Z,2.35
2023-03-17T08:50:28.359Z,2.35
2023-03-17T08:52:56.216Z,2.58
2023-03-17T08:55:25.105Z,2.33
2023-03-17T08:57:53.052Z,2.65
2023-03-17T09:00:21.425Z,2.28
2023-03-17T09:02:49.364Z,2.47
2023-03-17T09:05:17.766Z,2.58
2023-03-17T09:07:45.584Z,2.42
2023-03-17T09:10:14.914Z,2.03
2023-03-17T09:12:43.967Z,2.00
2023-03-17T09:15:12.436Z,2.53
2023-03-17T09:17:41.600Z,1.90
2023-03-17T09:20:09.927Z,2.17
2023-03-17T09:22:38.988Z,2.53
2023-03-17T09:25:07.647Z,2.40
2023-03-17T09:27:35.716Z,2.90
2023-03-17T09:30:04.918Z,2.47
2023-03-17T09:32:32.534Z,2.00
2023-03-17T09:35:01.098Z,2.20
2023-03-17T09:37:28.892Z,2.50
2023-03-17T09:39:56.704Z,2.25
2023-03-17T09:42:30.174Z,2.05
2023-03-17T09:45:06.613Z,2.30
2023-03-17T09:47:49.759Z,2.42
2023-03-17T09:50:23.585Z,2.47
2023-03-17T09:53:05.182Z,2.25
2023-03-17T09:55:34.923Z,2.53
2023-03-17T09:58:03.484Z,1.83
2023-03-17T10:00:31.358Z,2.42
2023-03-17T10:03:01.620Z,2.00
2023-03-17T10:05:30.546Z,2.20
2023-03-17T10:08:06.349Z,1.90
2023-03-17T10:10:40.900Z,2.40
2023-03-17T10:13:16.162Z,2.42
2023-03-17T10:15:48.576Z,2.08
2023-03-17T10:23:39.493Z,2.00
2023-03-17T10:26:16.558Z,1.80
2023-03-17T10:28:44.403Z,2.20
2023-03-17T10:31:17.623Z,2.20
2023-03-17T10:33:49.541Z,1.90
2023-03-17T10:36:22.136Z,1.83
2023-03-17T10:38:54.498Z,1.67
2023-03-17T10:41:24.140Z,2.10
2023-03-17T10:46:38.962Z,2.00
2023-03-17T10:49:12.645Z,3.75
2023-03-17T10:51:41.898Z,2.45
2023-03-17T10:54:11.361Z,2.60
2023-03-17T10:56:42.028Z,1.95
2023-03-17T10:59:18.749Z,1.92
2023-03-17T11:01:59.539Z,2.10
2023-03-17T11:04:30.261Z,2.30
2023-03-17T11:06:58.460Z,1.80
2023-03-17T11:09:30.260Z,1.90
2023-03-17T11:12:02.545Z,1.58
2023-03-17T11:14:30.383Z,1.95
2023-03-17T11:16:59.054Z,2.00
2023-03-17T11:19:30.978Z,2.10
2023-03-17T11:22:08.322Z,1.88
2023-03-17T11:24:41.572Z,2.10
2023-03-17T11:27:13.086Z,2.93
2023-03-17T11:29:51.740Z,1.67
2023-03-17T11:32:27.469Z,2.25
2023-03-17T11:35:22.081Z,1.70
2023-03-17T11:37:59.525Z,1.70
2023-03-17T11:40:32.106Z,1.75
2023-03-17T11:43:06.226Z,2.20
2023-03-17T11:45:38.299Z,1.70
2023-03-17T11:48:24.737Z,1.80
2023-03-17T11:51:17.721Z,1.60
2023-03-17T11:53:54.641Z,2.03
2023-03-17T11:56:25.022Z,1.90
2023-03-17T11:58:54.724Z,2.22
2023-03-17T12:01:27.218Z,1.98
2023-03-17T12:04:00.136Z,2.40
2023-03-17T12:06:30.578Z,1.92
2023-03-17T12:09:00.554Z,2.03
2023-03-17T12:11:29.914Z,3.53
2023-03-17T12:16:56.057Z,2.70
2023-03-17T12:19:26.182Z,2.30
2023-03-17T12:21:55.616Z,2.30
2023-03-17T12:24:28.918Z,2.22
2023-03-17T12:26:58.430Z,2.37
2023-03-17T12:32:22.535Z,1.88
2023-03-17T12:34:57.392Z,1.67
2023-03-17T12:37:28.120Z,2.00
2023-03-17T12:40:01.640Z,2.35
2023-03-17T12:42:39.145Z,1.90
2023-03-17T12:45:20.330Z,2.22
2023-03-17T12:48:00.112Z,2.63
2023-03-17T12:50:46.254Z,2.42
2023-03-17T12:53:31.827Z,2.13
2023-03-17T12:56:04.901Z,2.35
2023-03-17T12:58:37.141Z,2.08
2023-03-17T13:01:10.199Z,2.47
2023-03-17T13:03:38.811Z,2.58
2023-03-17T13:06:08.549Z,2.35
2023-03-17T13:08:38.129Z,2.55
2023-03-17T13:11:18.555Z,2.85
2023-03-17T13:13:48.117Z,2.45
2023-03-17T13:16:29.231Z,2.60
2023-03-17T13:19:14.980Z,2.40
2023-03-17T13:21:48.908Z,2.45
2023-03-17T13:24:37.321Z,3.65
2023-03-17T13:27:11.269Z,2.60
2023-03-17T13:29:41.141Z,2.47
2023-03-17T13:32:29.457Z,2.47
2023-03-17T13:35:15.877Z,2.80
2023-03-17T13:38:08.624Z,3.03
2023-03-17T13:40:41.657Z,2.67
2023-03-17T13:46:22.292Z,2.53
2023-03-17T13:48:50.440Z,2.95
2023-03-17T13:51:20.662Z,2.22
2023-03-17T13:53:51.022Z,2.78
2023-03-17T13:56:23.653Z,2.70
2023-03-17T13:59:05.847Z,3.17
2023-03-17T14:01:37.569Z,2.67
2023-03-17T14:04:10.632Z,2.60
2023-03-17T14:06:39.267Z,2.92
2023-03-17T14:09:09.426Z,2.60
2023-03-17T14:11:39.717Z,2.95
2023-03-17T14:14:32.520Z,2.53
2023-03-17T14:17:03.478Z,2.45
2023-03-17T14:19:32.681Z,2.75
2023-03-17T14:22:07.713Z,2.78
2023-03-17T14:24:36.102Z,2.78
2023-03-17T14:27:06.445Z,2.90
2023-03-17T14:29:35.966Z,2.45
2023-03-17T14:32:05.602Z,2.95
2023-03-17T14:34:34.973Z,2.70
2023-03-17T14:37:02.816Z,2.78
2023-03-17T14:39:32.276Z,3.15
2023-03-17T14:42:03.943Z,2.58
2023-03-17T14:44:39.581Z,2.50
2023-03-17T14:47:10.645Z,2.60
2023-03-17T14:49:39.350Z,3.17
2023-03-17T14:52:08.063Z,2.65
2023-03-17T14:54:36.628Z,3.13
2023-03-17T14:57:06.975Z,3.05
2023-03-17T14:59:35.670Z,3.10
2023-03-17T15:02:17.054Z,2.78
2023-03-17T15:04:51.485Z,2.92
2023-03-17T15:07:29.549Z,2.72
2023-03-17T15:09:59.799Z,2.90
2023-03-17T15:12:27.447Z,2.92
2023-03-17T15:14:57.365Z,3.00
2023-03-17T15:17:29.732Z,2.60
2023-03-17T15:19:58.382Z,3.03
2023-03-17T15:22:30.579Z,4.10
2023-03-17T15:25:02.466Z,3.22
2023-03-17T15:27:30.402Z,3.20
2023-03-17T15:29:58.317Z,3.90
2023-03-17T15:32:26.932Z,3.22
2023-03-17T15:34:57.013Z,4.28
2023-03-17T15:37:25.472Z,3.30
2023-03-17T15:39:55.090Z,3.35
2023-03-17T15:42:24.448Z,3.90
2023-03-17T15:44:52.432Z,4.22
2023-03-17T15:47:20.950Z,3.80
2023-03-17T15:49:49.527Z,3.97
2023-03-17T15:52:21.667Z,4.07
2023-03-17T15:54:49.776Z,3.70
2023-03-17T15:57:17.338Z,3.47
2023-03-17T15:59:45.421Z,3.65
2023-03-17T16:02:22.833Z,3.58
2023-03-17T16:04:50.500Z,3.20
2023-03-17T16:07:20.612Z,3.63
2023-03-17T16:09:51.616Z,3.17
2023-03-17T16:12:19.320Z,3.25
2023-03-17T16:14:49.263Z,3.20
2023-03-17T16:17:19.767Z,3.05
2023-03-17T16:19:47.948Z,3.50
2023-03-17T16:22:35.991Z,3.35
2023-03-17T16:25:03.770Z,3.70
2023-03-17T16:27:31.288Z,3.65
2023-03-17T16:29:58.886Z,3.58
2023-03-17T16:32:26.522Z,3.40
2023-03-17T16:34:54.729Z,3.30
2023-03-17T16:37:22.396Z,4.88
2023-03-17T16:39:52.346Z,4.68
2023-03-17T16:42:26.840Z,3.65
2023-03-17T16:44:54.769Z,4.03
2023-03-17T16:47:23.055Z,3.05
2023-03-17T16:49:51.222Z,2.95
2023-03-17T16:52:19.324Z,3.63
2023-03-17T16:54:48.273Z,3.50
2023-03-17T16:57:20.384Z,3.22
2023-03-17T16:59:58.945Z,3.45
2023-03-17T17:02:27.551Z,3.28
2023-03-17T17:05:02.677Z,3.05
2023-03-17T17:07:30.935Z,3.33
2023-03-17T17:09:58.807Z,3.05
2023-03-17T17:12:27.992Z,3.15
2023-03-17T17:14:55.712Z,2.95
2023-03-17T17:37:21.503Z,3.22
2023-03-17T17:39:50.166Z,3.63
2023-03-17T17:42:17.712Z,3.47
2023-03-17T17:44:48.972Z,4.45
2023-03-17T17:47:16.715Z,3.83
2023-03-17T17:49:44.499Z,3.97
2023-03-17T17:52:12.694Z,4.20
2023-03-17T17:54:41.564Z,4.43
2023-03-17T17:57:09.171Z,3.63
2023-03-17T17:59:37.120Z,3.88
2023-03-17T18:02:04.594Z,4.13
2023-03-17T18:04:32.298Z,4.20
2023-03-17T18:07:00.485Z,4.55
2023-03-17T18:09:29.444Z,3.53
2023-03-17T18:12:02.951Z,4.07
2023-03-17T18:14:30.544Z,3.53
2023-03-17T18:16:58.164Z,3.95
2023-03-17T18:22:18.115Z,3.85
2023-03-17T18:24:46.456Z,3.58
2023-03-17T18:27:15.804Z,3.58
2023-03-17T18:29:44.092Z,3.90
2023-03-17T18:32:13.700Z,4.00
2023-03-17T18:34:43.521Z,4.72
2023-03-17T18:37:11.447Z,3.65
2023-03-17T18:39:39.420Z,4.00
2023-03-17T18:42:07.057Z,3.90
2023-03-17T18:44:37.309Z,4.43
2023-03-17T18:47:05.010Z,3.80
2023-03-17T18:49:35.173Z,4.05
2023-03-17T18:52:03.016Z,5.22
2023-03-17T18:54:31.626Z,4.03
2023-03-17T18:56:59.776Z,4.10
2023-03-17T18:59:27.312Z,7.35
2023-03-17T19:01:58.659Z,3.20
2023-03-17T19:04:29.470Z,4.65
2023-03-17T19:06:57.008Z,3.15
2023-03-17T19:09:25.715Z,3.50
2023-03-17T19:11:56.467Z,3.75
2023-03-17T19:14:26.978Z,3.63
2023-03-17T19:16:55.995Z,3.58
2023-03-17T19:19:25.633Z,3.47
2023-03-17T19:21:53.115Z,4.15
2023-03-17T19:24:21.174Z,3.50
2023-03-17T19:26:49.001Z,3.63
2023-03-17T19:29:16.791Z,3.78
2023-03-17T19:31:48.759Z,3.92
2023-03-17T19:34:18.033Z,3.40
2023-03-17T19:36:50.884Z,3.92
2023-03-17T19:39:18.754Z,4.75
2023-03-17T19:41:48.524Z,3.45
2023-03-17T19:44:19.627Z,3.50
2023-03-17T19:46:55.480Z,3.65
2023-03-17T19:49:24.414Z,3.95
2023-03-17T19:52:30.951Z,3.33
2023-03-17T19:54:58.658Z,3.83
2023-03-17T19:57:26.387Z,4.43
2023-03-17T19:59:53.849Z,4.53
2023-03-17T20:02:21.749Z,3.65
2023-03-17T20:04:51.121Z,3.75
2023-03-17T20:07:18.761Z,4.10
2023-03-17T20:09:48.070Z,3.83
2023-03-17T20:12:15.617Z,3.90
2023-03-17T20:14:43.138Z,4.32
2023-03-17T20:17:10.725Z,4.38
2023-03-17T20:19:39.482Z,4.20
2023-03-17T20:22:08.703Z,3.78
2023-03-17T20:24:36.648Z,3.58
2023-03-17T20:27:05.211Z,4.20
2023-03-17T20:29:32.708Z,4.32
2023-03-17T20:32:02.175Z,5.55
2023-03-17T20:34:31.761Z,5.22
2023-03-17T20:36:59.352Z,4.30
2023-03-17T20:39:29.515Z,4.60
2023-03-17T20:41:57.306Z,4.50
2023-03-17T20:44:27.599Z,3.33
2023-03-17T20:46:55.516Z,3.90
2023-03-17T20:49:23.638Z,4.25
2023-03-17T20:51:51.770Z,3.97
2023-03-17T20:54:21.540Z,4.57
2023-03-17T20:56:53.605Z,3.90
2023-03-17T20:59:21.139Z,4.25
2023-03-17T21:04:46.578Z,4.78
2023-03-17T21:07:17.728Z,5.40
2023-03-17T21:09:45.280Z,5.15
2023-03-17T21:12:15.536Z,4.32
2023-03-17T21:14:43.709Z,4.53
2023-03-17T21:17:11.815Z,5.32
2023-03-17T21:22:32.275Z,5.13
2023-03-17T21:24:59.756Z,4.85
2023-03-17T21:27:29.114Z,5.53
2023-03-17T21:32:49.013Z,3.90
2023-03-17T21:35:17.483Z,5.10
2023-03-17T21:37:45.017Z,4.07
2023-03-17T21:40:13.734Z,4.63
2023-03-17T21:42:43.026Z,4.80
2023-03-17T21:45:10.791Z,5.00
2023-03-17T21:50:34.012Z,5.13
2023-03-17T21:53:01.902Z,5.82
2023-03-17T21:55:29.428Z,5.18
2023-03-17T21:57:59.152Z,5.35
2023-03-17T22:00:28.986Z,5.65
2023-03-17T22:03:04.434Z,5.85
2023-03-17T22:05:32.000Z,5.57
2023-03-17T22:07:59.596Z,7.03
2023-03-17T22:10:27.390Z,6.88
2023-03-17T22:13:20.545Z,6.05
2023-03-17T22:16:13.907Z,6.45
2023-03-17T22:18:43.047Z,5.60
2023-03-17T22:21:11.153Z,6.43
2023-03-17T22:23:41.693Z,6.85
2023-03-17T22:26:09.390Z,6.57
2023-03-17T22:28:37.857Z,7.63
2023-03-17T22:31:11.147Z,6.75
2023-03-17T22:33:38.754Z,7.07
2023-03-17T22:36:07.859Z,7.13
2023-03-17T22:38:35.438Z,6.45
2023-03-17T22:41:03.558Z,7.30
2023-03-17T22:43:31.145Z,7.20
2023-03-17T22:45:58.861Z,7.07
2023-03-17T22:48:29.419Z,7.20
2023-03-17T22:50:56.911Z,8.02
2023-03-17T22:53:26.240Z,6.57
2023-03-17T22:55:53.761Z,8.15
2023-03-17T22:58:21.364Z,8.40
2023-03-17T23:00:50.260Z,7.53
2023-03-17T23:03:18.196Z,6.55
2023-03-17T23:05:46.229Z,7.03
2023-03-17T23:08:14.001Z,7.15
2023-03-17T23:11:07.049Z,8.00
2023-03-17T23:13:36.401Z,7.63
2023-03-17T23:16:04.684Z,7.00
2023-03-17T23:18:32.262Z,7.80
2023-03-17T23:21:00.205Z,7.80
2023-03-17T23:23:28.006Z,8.18
2023-03-17T23:25:56.283Z,7.70
2023-03-17T23:28:24.213Z,7.50
2023-03-17T23:30:53.385Z,7.30
2023-03-17T23:33:22.782Z,6.57
2023-03-17T23:35:51.457Z,7.88
2023-03-17T23:38:19.495Z,7.10
2023-03-17T23:40:47.441Z,7.35
2023-03-17T23:43:15.055Z,6.30
2023-03-17T23:45:42.810Z,7.65
2023-03-17T23:48:11.876Z,7.28
2023-03-17T23:50:42.526Z,7.00
2023-03-17T23:53:11.520Z,7.25
2023-03-17T23:55:39.366Z,8.02
2023-03-17T23:58:06.919Z,7.93
